Main page
METAR-TAF:

METAR-TAF

Airports :

Zagreb, Croatia

Zagreb Airport

latitude: 45-44N, longitude: 016-04E, elevation: 106 m

Current weather observation

The report was made 19 minutes ago, at 09:30 UTC
Wind 1 kt from variable directions
Temperature 3°C
Humidity 70%
Pressure 1024 hPa
Visibility 10 km or more
no clouds below 1500 m and no cumulonimbus

METAR: LDZA 230930Z VRB01KT CAVOK 03/M02 Q1024 NOSIG

Time: 10:49 (09:49 UTC)

Forecast

The report was made 4 hours and 24 minutes ago, at 05:25 UTC
Forecast valid from 23 at 06 UTC to 24 at 06 UTC
Wind 2 kt from variable directions
Visibility 10 km or more
no clouds below 1500 m and no cumulonimbus
Probability 30% :
Temporary
from 23 at 06 UTC to 23 at 08 UTC
(light) freezing, rain
Becoming
from 24 at 00 UTC to 24 at 02 UTC
Visibility: 0100 m
at a height of 100 ft
freezing fog

TAF: LDZA 230525Z 2306/2406 VRB02KT CAVOK TX06/2313Z TNM04/2405Z PROB30 TEMPO 2306/2308 -FZRA BECMG 2400/2402 0100 FZFG VV001

Weather observations and forecasts of more than 4000 airports (METAR and TAF reports).

The available stations are represented by yellow and red dots on the map.

Hover mouse over dot to see the name of the station.

Then click to see weather observations and forecasts.

To change the map : click on the green buttons with a black cross to zoom in, on the green button with a dash to zoom out, or on the green arrows for adjacent maps.


METAR-TAF: